Time;durP1;ratioP1;P1;durP2;ratioP2;P2;SDS_P1;SDS_P2;PMS_P1;PMS_P2;Temp;Humidity;BMP_temperature;BMP_pressure;BME280_temperature;BME280_humidity;BME280_pressure;Samples;Min_cycle;Max_cycle;Signal;HPM_P1;HPM_P2
2022/04/13 00:00:13;;;;;;;8.82;6.20;;;;;;;;;;5089430;27;20104;-85
2022/04/13 00:02:39;;;;;;;8.52;6.13;;;;;;;;;;5092140;27;20110;-83
2022/04/13 00:05:05;;;;;;;8.13;6.05;;;;;;;;;;5106841;27;20047;-84
2022/04/13 00:07:31;;;;;;;10.90;6.43;;;;;;;;;;5075538;27;20042;-83
2022/04/13 00:09:57;;;;;;;8.27;6.15;;;;;;;;;;5073437;27;20071;-84
2022/04/13 00:12:23;;;;;;;9.85;6.43;;;;;;;;;;5074472;28;20077;-85
2022/04/13 00:14:50;;;;;;;9.02;6.28;;;;;;;;;;5075368;28;20032;-84
2022/04/13 00:17:16;;;;;;;9.45;6.82;;;;;;;;;;5073395;28;20031;-85
2022/04/13 00:19:42;;;;;;;10.07;5.72;;;;;;;;;;5107220;27;20126;-84
2022/04/13 00:22:08;;;;;;;9.45;6.35;;;;;;;;;;5056470;28;20039;-83
2022/04/13 00:24:34;;;;;;;10.18;6.82;;;;;;;;;;5074297;27;20040;-84
2022/04/13 00:27:00;;;;;;;11.23;6.82;;;;;;;;;;5073051;28;20052;-86
2022/04/13 00:29:30;;;;;;;9.70;6.90;;;;;;;;;;5071056;28;20402;-84
2022/04/13 00:31:57;;;;;;;10.13;6.68;;;;;;;;;;5072446;27;20126;-84
2022/04/13 00:34:24;;;;;;;9.25;6.72;;;;;;;;;;5074714;28;20039;-85
2022/04/13 00:36:50;;;;;;;10.32;6.63;;;;;;;;;;5118633;27;20052;-84
2022/04/13 00:39:17;;;;;;;11.85;7.13;;;;;;;;;;5073550;27;20112;-84
2022/04/13 00:41:43;;;;;;;10.32;7.55;;;;;;;;;;5071692;28;20126;-83
2022/04/13 00:44:10;;;;;;;11.38;7.70;;;;;;;;;;5072893;27;20039;-82
2022/04/13 00:46:36;;;;;;;10.50;6.93;;;;;;;;;;5076003;27;21371;-83
2022/04/13 00:49:03;;;;;;;10.68;7.78;;;;;;;;;;5072250;28;20378;-82
2022/04/13 00:51:29;;;;;;;9.25;7.45;;;;;;;;;;5085651;28;20482;-84
2022/04/13 00:53:57;;;;;;;11.27;7.60;;;;;;;;;;5121835;27;20551;-82
2022/04/13 00:56:24;;;;;;;12.15;7.93;;;;;;;;;;5072485;28;21575;-82
2022/04/13 00:58:53;;;;;;;11.60;8.20;;;;;;;;;;5118656;27;20036;-82
2022/04/13 01:01:19;;;;;;;12.65;8.35;;;;;;;;;;5072691;28;20068;-82
2022/04/13 01:03:45;;;;;;;11.63;9.27;;;;;;;;;;5072753;28;20077;-81
2022/04/13 01:06:14;;;;;;;14.68;9.73;;;;;;;;;;5089330;28;20043;-84
2022/04/13 01:08:42;;;;;;;10.38;8.10;;;;;;;;;;5082859;27;20039;-83
2022/04/13 01:11:08;;;;;;;11.68;8.45;;;;;;;;;;5056117;28;20051;-83
2022/04/13 01:13:38;;;;;;;14.55;9.25;;;;;;;;;;5056616;28;20044;-83
2022/04/13 01:16:05;;;;;;;13.13;8.40;;;;;;;;;;5091279;28;20115;-83
2022/04/13 01:18:31;;;;;;;13.93;8.65;;;;;;;;;;5122910;27;20054;-84
2022/04/13 01:20:59;;;;;;;13.10;9.70;;;;;;;;;;5073154;28;20035;-83
2022/04/13 01:23:25;;;;;;;16.02;9.68;;;;;;;;;;5070974;28;20125;-85
2022/04/13 01:25:52;;;;;;;13.38;9.63;;;;;;;;;;5105508;28;20043;-81
2022/04/13 01:28:18;;;;;;;14.15;10.02;;;;;;;;;;5073346;28;20046;-82
2022/04/13 01:30:44;;;;;;;16.23;10.18;;;;;;;;;;5070593;27;20047;-82
2022/04/13 01:33:11;;;;;;;16.20;10.10;;;;;;;;;;5071550;28;20039;-86
2022/04/13 01:35:37;;;;;;;16.83;10.50;;;;;;;;;;5105927;28;20097;-82
2022/04/13 01:38:04;;;;;;;15.82;9.88;;;;;;;;;;5073749;28;20039;-83
2022/04/13 01:40:30;;;;;;;17.30;9.30;;;;;;;;;;5070158;28;20043;-83
2022/04/13 01:42:56;;;;;;;14.15;9.77;;;;;;;;;;5084318;28;20048;-83
2022/04/13 01:45:22;;;;;;;13.80;10.95;;;;;;;;;;5067580;28;20067;-83
2022/04/13 01:47:48;;;;;;;17.02;11.18;;;;;;;;;;5050704;28;20047;-82
2022/04/13 01:50:16;;;;;;;15.15;10.73;;;;;;;;;;5086408;28;20036;-83
2022/04/13 01:52:42;;;;;;;15.50;10.90;;;;;;;;;;5053127;28;20089;-83
2022/04/13 01:55:08;;;;;;;16.67;10.98;;;;;;;;;;5051595;28;20411;-83
2022/04/13 01:57:35;;;;;;;15.88;10.85;;;;;;;;;;5083999;28;20470;-84
2022/04/13 02:00:01;;;;;;;13.55;10.77;;;;;;;;;;5085136;28;20089;-85
2022/04/13 02:02:27;;;;;;;14.15;11.52;;;;;;;;;;5086938;28;20078;-83
2022/04/13 02:04:54;;;;;;;16.02;11.32;;;;;;;;;;5071616;28;21006;-83
2022/04/13 02:07:20;;;;;;;17.83;11.40;;;;;;;;;;5069001;28;20044;-83
2022/04/13 02:09:46;;;;;;;15.73;11.77;;;;;;;;;;5067487;28;20051;-83
2022/04/13 02:12:12;;;;;;;18.42;11.80;;;;;;;;;;5068658;28;20072;-83
2022/04/13 02:14:38;;;;;;;18.75;12.25;;;;;;;;;;5070390;28;20119;-86
2022/04/13 02:17:05;;;;;;;18.05;12.02;;;;;;;;;;5073637;28;20056;-83
2022/04/13 02:19:31;;;;;;;16.55;12.20;;;;;;;;;;5071150;28;20586;-89
2022/04/13 02:21:57;;;;;;;19.50;13.23;;;;;;;;;;5090500;28;20032;-82
2022/04/13 02:24:23;;;;;;;20.42;13.68;;;;;;;;;;5055095;28;20131;-83
2022/04/13 02:26:49;;;;;;;17.63;13.23;;;;;;;;;;5055356;28;20722;-82
2022/04/13 02:29:15;;;;;;;23.15;15.15;;;;;;;;;;5057822;28;20052;-83
2022/04/13 02:31:41;;;;;;;24.17;15.05;;;;;;;;;;5070768;28;20119;-83
2022/04/13 02:34:07;;;;;;;18.00;14.23;;;;;;;;;;5072095;28;20040;-82
2022/04/13 02:36:33;;;;;;;18.98;14.32;;;;;;;;;;5055032;28;20036;-82
2022/04/13 02:39:00;;;;;;;19.55;13.90;;;;;;;;;;5071965;28;20185;-83
2022/04/13 02:41:26;;;;;;;20.40;14.30;;;;;;;;;;5055484;28;20392;-85
2022/04/13 02:43:52;;;;;;;20.77;14.35;;;;;;;;;;5071484;28;20048;-83
2022/04/13 02:46:18;;;;;;;19.77;15.07;;;;;;;;;;5074484;28;20036;-83
2022/04/13 02:48:44;;;;;;;22.38;15.80;;;;;;;;;;5074523;28;20091;-84
2022/04/13 02:51:10;;;;;;;23.15;15.00;;;;;;;;;;5057004;28;20048;-83
2022/04/13 02:53:36;;;;;;;24.20;15.90;;;;;;;;;;5055193;28;20089;-83
2022/04/13 02:56:02;;;;;;;19.77;14.68;;;;;;;;;;5071206;28;20028;-83
2022/04/13 02:58:28;;;;;;;23.42;15.32;;;;;;;;;;5105165;27;20048;-84
2022/04/13 03:00:54;;;;;;;21.00;14.50;;;;;;;;;;5071274;28;20036;-86
2022/04/13 03:03:21;;;;;;;23.25;16.23;;;;;;;;;;5072083;28;20228;-83
2022/04/13 03:05:47;;;;;;;21.60;15.95;;;;;;;;;;5087200;28;20051;-82
2022/04/13 03:08:13;;;;;;;20.38;15.63;;;;;;;;;;5071279;28;20040;-81
2022/04/13 03:10:40;;;;;;;20.23;14.80;;;;;;;;;;5053990;28;21249;-85
2022/04/13 03:13:06;;;;;;;23.65;16.23;;;;;;;;;;5087120;28;20509;-82
2022/04/13 03:15:32;;;;;;;24.75;16.25;;;;;;;;;;5070815;28;20541;-82
2022/04/13 03:17:58;;;;;;;23.25;15.85;;;;;;;;;;5071019;28;20047;-81
2022/04/13 03:20:24;;;;;;;20.15;16.58;;;;;;;;;;5072106;28;20071;-82
2022/04/13 03:22:50;;;;;;;24.67;17.67;;;;;;;;;;5069798;28;20047;-82
2022/04/13 03:25:17;;;;;;;25.77;16.52;;;;;;;;;;5069097;28;20059;-83
2022/04/13 03:27:43;;;;;;;27.50;17.75;;;;;;;;;;5089104;28;20044;-81
2022/04/13 03:30:09;;;;;;;22.90;17.73;;;;;;;;;;5068643;28;20043;-83
2022/04/13 03:32:36;;;;;;;23.25;15.80;;;;;;;;;;5070882;28;20101;-85
2022/04/13 03:35:02;;;;;;;25.63;17.00;;;;;;;;;;5069001;28;20036;-82
2022/04/13 03:37:28;;;;;;;24.17;17.67;;;;;;;;;;5070027;28;20043;-82
2022/04/13 03:39:55;;;;;;;28.70;19.13;;;;;;;;;;5054389;28;20513;-82
2022/04/13 03:42:21;;;;;;;25.73;18.23;;;;;;;;;;5054529;28;20075;-85
2022/04/13 03:44:47;;;;;;;29.90;19.88;;;;;;;;;;5053700;28;20052;-79
2022/04/13 03:47:13;;;;;;;27.38;18.75;;;;;;;;;;5087374;28;20040;-82
2022/04/13 03:49:39;;;;;;;28.02;18.42;;;;;;;;;;5054017;28;20600;-83
2022/04/13 03:52:05;;;;;;;27.55;19.38;;;;;;;;;;5088236;28;20058;-81
2022/04/13 03:54:31;;;;;;;25.88;17.65;;;;;;;;;;5056819;28;20047;-84
2022/04/13 03:56:57;;;;;;;28.20;18.30;;;;;;;;;;5052813;28;20097;-83
2022/04/13 03:59:24;;;;;;;30.27;18.45;;;;;;;;;;5069896;28;20515;-84
2022/04/13 04:01:50;;;;;;;26.30;19.00;;;;;;;;;;5087098;28;20046;-82
2022/04/13 04:04:16;;;;;;;27.65;18.95;;;;;;;;;;5073958;28;20364;-84
2022/04/13 04:06:42;;;;;;;;;;;;;;;;;;5053132;28;20135;-82
2022/04/13 04:09:08;;;;;;;24.92;18.08;;;;;;;;;;5088905;28;20006;-81
2022/04/13 04:11:34;;;;;;;;;;;;;;;;;;5054109;28;20564;-79
2022/04/13 04:14:00;;;;;;;27.17;18.33;;;;;;;;;;5086360;28;19916;-80
2022/04/13 04:16:26;;;;;;;27.83;18.65;;;;;;;;;;5056492;28;20040;-83
2022/04/13 04:18:53;;;;;;;28.98;18.52;;;;;;;;;;5070320;28;20048;-84
2022/04/13 04:21:19;;;;;;;26.67;18.17;;;;;;;;;;5070990;28;20085;-80
2022/04/13 04:23:48;;;;;;;24.95;17.38;;;;;;;;;;5082177;28;20123;-80
2022/04/13 04:26:14;;;;;;;27.45;18.58;;;;;;;;;;5069607;28;20039;-81
2022/04/13 04:28:41;;;;;;;27.95;19.00;;;;;;;;;;5067331;28;20047;-85
2022/04/13 04:31:08;;;;;;;27.77;18.00;;;;;;;;;;5054364;28;20134;-81
2022/04/13 04:33:34;;;;;;;31.67;19.85;;;;;;;;;;5068111;28;20051;-80
2022/04/13 04:36:00;;;;;;;29.98;20.10;;;;;;;;;;5083563;28;20051;-83
2022/04/13 04:38:30;;;;;;;31.27;19.50;;;;;;;;;;5051977;28;20076;-84
2022/04/13 04:40:56;;;;;;;33.67;20.70;;;;;;;;;;5087179;28;20040;-81
2022/04/13 04:43:22;;;;;;;29.85;19.95;;;;;;;;;;5090712;27;20051;-81
2022/04/13 04:45:48;;;;;;;33.75;20.77;;;;;;;;;;5071503;28;20122;-80
2022/04/13 04:48:14;;;;;;;30.38;20.02;;;;;;;;;;5071769;27;20059;-79
2022/04/13 04:50:41;;;;;;;31.38;20.85;;;;;;;;;;5091943;28;20067;-80
2022/04/13 04:53:07;;;;;;;35.50;20.95;;;;;;;;;;5088272;27;20050;-79
2022/04/13 04:55:33;;;;;;;36.33;21.48;;;;;;;;;;5070545;28;20036;-80
2022/04/13 04:58:00;;;;;;;34.17;21.13;;;;;;;;;;5120963;27;20382;-81
2022/04/13 05:00:26;;;;;;;32.83;20.55;;;;;;;;;;5105029;28;20078;-85
2022/04/13 05:02:53;;;;;;;36.40;22.27;;;;;;;;;;5113112;27;20035;-90
2022/04/13 05:05:20;;;;;;;30.17;22.00;;;;;;;;;;5087267;28;20244;-81
2022/04/13 05:07:46;;;;;;;33.22;21.75;;;;;;;;;;5090966;27;20031;-80
2022/04/13 05:10:12;;;;;;;30.67;21.55;;;;;;;;;;5072995;28;20066;-82
2022/04/13 05:12:43;;;;;;;33.30;21.50;;;;;;;;;;5091040;28;20036;-84
2022/04/13 05:15:09;;;;;;;34.70;21.65;;;;;;;;;;5069763;28;20075;-83
2022/04/13 05:17:37;;;;;;;35.03;22.25;;;;;;;;;;5071429;28;20043;-77
2022/04/13 05:20:04;;;;;;;35.97;21.52;;;;;;;;;;5072515;28;20036;-80
2022/04/13 05:22:30;;;;;;;32.60;21.77;;;;;;;;;;5074749;28;20058;-81
2022/04/13 05:25:01;;;;;;;30.80;21.23;;;;;;;;;;5071074;28;20046;-81
2022/04/13 05:27:27;;;;;;;41.17;22.33;;;;;;;;;;5106930;28;20204;-82
2022/04/13 05:29:53;;;;;;;37.92;23.02;;;;;;;;;;5108247;28;20043;-82
2022/04/13 05:32:19;;;;;;;37.30;22.70;;;;;;;;;;5074393;28;20040;-82
2022/04/13 05:34:45;;;;;;;32.97;21.67;;;;;;;;;;5073757;28;20044;-81
2022/04/13 05:37:11;;;;;;;38.67;22.92;;;;;;;;;;5090053;28;20050;-82
2022/04/13 05:39:38;;;;;;;33.72;22.92;;;;;;;;;;5071056;28;20039;-81
2022/04/13 05:42:04;;;;;;;39.47;23.42;;;;;;;;;;5123921;27;20172;-82
2022/04/13 05:44:31;;;;;;;37.67;24.73;;;;;;;;;;5072998;28;20043;-82
2022/04/13 05:46:57;;;;;;;38.65;23.90;;;;;;;;;;5123154;27;20486;-82
2022/04/13 05:49:23;;;;;;;35.30;24.58;;;;;;;;;;5056485;28;20682;-79
2022/04/13 05:51:49;;;;;;;34.05;24.20;;;;;;;;;;5088597;28;20035;-81
2022/04/13 05:54:16;;;;;;;36.45;22.85;;;;;;;;;;5137448;27;20124;-86
2022/04/13 05:56:42;;;;;;;35.38;23.08;;;;;;;;;;5057044;28;20482;-88
2022/04/13 05:59:08;;;;;;;36.28;25.02;;;;;;;;;;5092444;28;20609;-84
2022/04/13 06:01:34;;;;;;;37.17;22.77;;;;;;;;;;5075961;28;20577;-83
2022/04/13 06:04:00;;;;;;;33.00;23.15;;;;;;;;;;5059095;28;20046;-82
2022/04/13 06:06:28;;;;;;;37.08;21.95;;;;;;;;;;5074729;28;20067;-82
2022/04/13 06:08:54;;;;;;;31.92;22.20;;;;;;;;;;5057989;28;20067;-83
2022/04/13 06:11:20;;;;;;;41.22;23.23;;;;;;;;;;5108676;28;20075;-89
2022/04/13 06:13:46;;;;;;;34.05;22.38;;;;;;;;;;5076862;28;20047;-83
2022/04/13 06:16:12;;;;;;;31.90;22.77;;;;;;;;;;5125081;28;20118;-84
2022/04/13 06:18:38;;;;;;;33.00;21.92;;;;;;;;;;5075345;28;20047;-84
2022/04/13 06:21:05;;;;;;;29.85;21.50;;;;;;;;;;5058213;28;20043;-84
2022/04/13 06:23:31;;;;;;;32.15;20.90;;;;;;;;;;5059205;28;20043;-86
2022/04/13 06:25:57;;;;;;;35.88;21.02;;;;;;;;;;5057066;28;20043;-84
2022/04/13 06:28:23;;;;;;;34.88;21.00;;;;;;;;;;5057901;28;20066;-83
2022/04/13 06:30:49;;;;;;;30.00;20.45;;;;;;;;;;5072262;28;20490;-82
2022/04/13 06:33:15;;;;;;;29.45;21.23;;;;;;;;;;5090098;28;20546;-83
2022/04/13 06:35:41;;;;;;;28.83;20.45;;;;;;;;;;5073838;28;20045;-84
2022/04/13 06:38:07;;;;;;;30.38;20.45;;;;;;;;;;5070876;28;20047;-84
2022/04/13 06:40:34;;;;;;;26.55;19.42;;;;;;;;;;5073258;28;20371;-83
2022/04/13 06:43:00;;;;;;;28.40;19.17;;;;;;;;;;5066341;28;20052;-85
2022/04/13 06:45:26;;;;;;;31.00;20.15;;;;;;;;;;5052623;28;20147;-86
2022/04/13 06:47:52;;;;;;;33.17;20.75;;;;;;;;;;5090364;28;20076;-84
2022/04/13 06:50:18;;;;;;;26.30;19.48;;;;;;;;;;5070783;28;20097;-83
2022/04/13 06:52:45;;;;;;;28.52;19.48;;;;;;;;;;5054576;28;20044;-84
2022/04/13 06:55:12;;;;;;;30.38;19.50;;;;;;;;;;5070774;28;20047;-86
2022/04/13 06:57:38;;;;;;;30.63;20.48;;;;;;;;;;5088946;28;20040;-84
2022/04/13 07:00:08;;;;;;;26.45;19.13;;;;;;;;;;5087615;28;20375;-87
2022/04/13 07:02:38;;;;;;;31.60;18.67;;;;;;;;;;5059045;28;20051;-84
2022/04/13 07:05:04;;;;;;;28.77;19.05;;;;;;;;;;5091641;28;20044;-83
2022/04/13 07:07:31;;;;;;;28.45;19.08;;;;;;;;;;5075272;28;20051;-83
2022/04/13 07:09:57;;;;;;;28.77;18.83;;;;;;;;;;5090918;28;20078;-84
2022/04/13 07:12:23;;;;;;;30.55;18.20;;;;;;;;;;5091402;28;20152;-83
2022/04/13 07:14:49;;;;;;;27.58;18.17;;;;;;;;;;5073689;28;20542;-84
2022/04/13 07:17:15;;;;;;;;;;;;;;;;;;5076187;28;20088;-87
2022/04/13 07:19:41;;;;;;;;;;;;;;;;;;5073584;28;19923;-84
2022/04/13 07:22:07;;;;;;;;;;;;;;;;;;5091667;28;20008;-85
2022/04/13 07:24:34;;;;;;;;;;;;;;;;;;5076839;28;20437;-82
2022/04/13 07:27:00;;;;;;;;;;;;;;;;;;5075963;28;19945;-84
2022/04/13 07:29:26;;;;;;;;;;;;;;;;;;5074845;28;19931;-83
2022/04/13 07:31:52;;;;;;;;;;;;;;;;;;5074423;28;19920;-81
2022/04/13 07:34:18;;;;;;;;;;;;;;;;;;5090721;28;20290;-81
2022/04/13 07:36:44;;;;;;;;;;;;;;;;;;5076206;28;19928;-82
2022/04/13 07:39:10;;;;;;;23.60;15.52;;;;;;;;;;5074301;28;19934;-81
2022/04/13 07:41:36;;;;;;;21.42;14.38;;;;;;;;;;5074394;28;20049;-81
2022/04/13 07:44:02;;;;;;;23.70;14.38;;;;;;;;;;5121362;27;20126;-81
2022/04/13 07:46:29;;;;;;;19.35;12.80;;;;;;;;;;5108824;28;21043;-81
2022/04/13 07:48:55;;;;;;;23.35;14.35;;;;;;;;;;5071134;28;20035;-87
2022/04/13 07:51:21;;;;;;;20.17;13.90;;;;;;;;;;5112494;27;20474;-82
2022/04/13 07:53:48;;;;;;;23.00;14.18;;;;;;;;;;5060430;28;20044;-82
2022/04/13 07:56:14;;;;;;;18.48;14.20;;;;;;;;;;5062562;28;20081;-82
2022/04/13 07:58:40;;;;;;;21.52;13.68;;;;;;;;;;5065157;28;20047;-83
2022/04/13 08:01:06;;;;;;;18.52;13.45;;;;;;;;;;5094270;28;20385;-84
2022/04/13 08:03:32;;;;;;;20.05;12.48;;;;;;;;;;5077204;28;20081;-83
2022/04/13 08:05:59;;;;;;;24.45;14.02;;;;;;;;;;5059416;28;20075;-84
2022/04/13 08:08:25;;;;;;;18.00;12.55;;;;;;;;;;5127644;27;20039;-84
2022/04/13 08:10:51;;;;;;;16.30;12.43;;;;;;;;;;5076409;28;20040;-85
2022/04/13 08:13:17;;;;;;;19.45;12.18;;;;;;;;;;5076212;28;20478;-86
2022/04/13 08:15:43;;;;;;;22.23;13.65;;;;;;;;;;5093533;28;20395;-86
2022/04/13 08:18:09;;;;;;;26.17;13.82;;;;;;;;;;5095690;28;20054;-82
2022/04/13 08:20:35;;;;;;;17.85;11.50;;;;;;;;;;5076684;28;20119;-87
2022/04/13 08:23:01;;;;;;;;;;;;;;;;;;5088544;28;20058;-78
2022/04/13 08:25:27;;;;;;;;;;;;;;;;;;5067367;27;20354;-78
2022/04/13 08:27:53;;;;;;;;;;;;;;;;;;5067640;28;20315;-84
2022/04/13 08:30:19;;;;;;;;;;;;;;;;;;5082704;28;19920;-81
2022/04/13 08:32:45;;;;;;;;;;;;;;;;;;5087255;28;19928;-81
2022/04/13 08:35:11;;;;;;;;;;;;;;;;;;5065250;28;19920;-77
2022/04/13 08:37:37;;;;;;;;;;;;;;;;;;5085577;28;20041;-79
2022/04/13 08:40:03;;;;;;;;;;;;;;;;;;5118207;27;19927;-83
2022/04/13 08:42:28;;;;;;;;;;;;;;;;;;5073116;27;20069;-83
2022/04/13 08:44:54;;;;;;;;;;;;;;;;;;5101707;28;20830;-83
2022/04/13 08:47:20;;;;;;;;;;;;;;;;;;5087288;28;20283;-83
2022/04/13 08:49:49;;;;;;;;;;;;;;;;;;5097849;27;19923;-83
2022/04/13 08:52:14;;;;;;;;;;;;;;;;;;5136815;27;19923;-82
2022/04/13 08:54:41;;;;;;;;;;;;;;;;;;5089220;28;19919;-83
2022/04/13 08:57:07;;;;;;;;;;;;;;;;;;5084499;28;19915;-83
2022/04/13 08:59:33;;;;;;;;;;;;;;;;;;5068687;28;20665;-82
2022/04/13 09:02:00;;;;;;;;;;;;;;;;;;5066082;28;19995;-82
2022/04/13 09:04:26;;;;;;;;;;;;;;;;;;5096976;28;20405;-82
2022/04/13 09:06:52;;;;;;;;;;;;;;;;;;5079834;28;20050;-81
2022/04/13 09:09:18;;;;;;;;;;;;;;;;;;5098069;28;20380;-82
2022/04/13 09:11:44;;;;;;;;;;;;;;;;;;5067534;28;19927;-82
2022/04/13 09:14:10;;;;;;;;;;;;;;;;;;5068759;28;19938;-82
2022/04/13 09:16:36;;;;;;;;;;;;;;;;;;5084445;28;19915;-81
2022/04/13 09:19:02;;;;;;;;;;;;;;;;;;5081686;28;20073;-82
2022/04/13 09:21:28;;;;;;;;;;;;;;;;;;5065875;27;20372;-83
2022/04/13 09:23:54;;;;;;;;;;;;;;;;;;5072232;28;19926;-83
2022/04/13 09:26:20;;;;;;;;;;;;;;;;;;5067425;28;19970;-82
2022/04/13 09:28:46;;;;;;;;;;;;;;;;;;5097605;28;19927;-81
2022/04/13 09:31:12;;;;;;;;;;;;;;;;;;5081623;28;19952;-83
2022/04/13 09:33:38;;;;;;;;;;;;;;;;;;5115020;27;20718;-82
2022/04/13 09:36:04;;;;;;;;;;;;;;;;;;5067362;27;19931;-84
2022/04/13 09:38:30;;;;;;;;;;;;;;;;;;5081031;28;19930;-82
2022/04/13 09:40:56;;;;;;;;;;;;;;;;;;5095849;28;19928;-82
2022/04/13 09:43:23;;;;;;;;;;;;;;;;;;5100424;28;19927;-81
2022/04/13 09:45:50;;;;;;;11.75;7.13;;;;;;;;;;5088609;28;20274;-81
2022/04/13 09:48:20;;;;;;;12.40;7.53;;;;;;;;;;5072330;28;20093;-83
2022/04/13 09:50:47;;;;;;;12.80;7.60;;;;;;;;;;5072584;28;20040;-83
2022/04/13 09:53:14;;;;;;;12.13;6.90;;;;;;;;;;5066847;28;20066;-82
2022/04/13 09:55:41;;;;;;;16.33;7.85;;;;;;;;;;5089752;28;20040;-80
2022/04/13 09:58:14;;;;;;;13.20;7.43;;;;;;;;;;5071764;28;20068;-83
2022/04/13 10:00:41;;;;;;;8.50;6.32;;;;;;;;;;5069131;28;20444;-80
2022/04/13 10:03:09;;;;;;;12.23;6.75;;;;;;;;;;5070335;28;20426;-82
2022/04/13 10:05:35;;;;;;;9.73;6.05;;;;;;;;;;5072151;28;20425;-83
2022/04/13 10:08:02;;;;;;;9.95;5.97;;;;;;;;;;5051726;28;20544;-84
2022/04/13 10:10:28;;;;;;;13.00;6.47;;;;;;;;;;5086931;28;20429;-83
2022/04/13 10:12:55;;;;;;;10.60;6.65;;;;;;;;;;5069702;28;20425;-82
2022/04/13 10:15:21;;;;;;;11.07;6.57;;;;;;;;;;5084211;28;20414;-87
2022/04/13 10:17:47;;;;;;;10.48;6.43;;;;;;;;;;5087255;28;20424;-84
2022/04/13 10:20:13;;;;;;;12.25;6.32;;;;;;;;;;5067004;28;20874;-81
2022/04/13 10:22:58;;;;;;;9.65;6.28;;;;;;;;;;5067860;28;20430;-83
2022/04/13 10:25:28;;;;;;;10.75;5.57;;;;;;;;;;5070899;28;20472;-83
2022/04/13 10:27:55;;;;;;;9.77;5.10;;;;;;;;;;5104882;28;20036;-83
2022/04/13 10:30:28;;;;;;;7.75;4.95;;;;;;;;;;5053167;28;20043;-82
2022/04/13 10:33:02;;;;;;;11.10;4.65;;;;;;;;;;5090216;28;20048;-83
2022/04/13 10:35:28;;;;;;;;;;;;;;;;;;5074346;28;20435;-82
2022/04/13 10:37:55;;;;;;;9.98;5.05;;;;;;;;;;5074262;28;20377;-79
2022/04/13 10:40:23;;;;;;;8.88;5.15;;;;;;;;;;5075789;28;20087;-91
2022/04/13 10:42:51;;;;;;;9.10;5.07;;;;;;;;;;5073777;28;20143;-81
2022/04/13 10:45:17;;;;;;;9.07;5.20;;;;;;;;;;5089681;28;20059;-85
2022/04/13 10:47:46;;;;;;;8.70;4.70;;;;;;;;;;5075165;28;20044;-89
2022/04/13 10:50:14;;;;;;;8.57;4.35;;;;;;;;;;5073215;28;20130;-84
2022/04/13 10:52:41;;;;;;;10.13;5.18;;;;;;;;;;5092276;28;20051;-85
2022/04/13 10:55:08;;;;;;;9.32;5.05;;;;;;;;;;5069399;28;20049;-84
2022/04/13 10:57:47;;;;;;;12.98;6.25;;;;;;;;;;5073633;28;20123;-84
2022/04/13 11:00:16;;;;;;;10.07;5.80;;;;;;;;;;5073028;28;20060;-85
2022/04/13 11:02:42;;;;;;;10.05;5.32;;;;;;;;;;5088009;28;20040;-83
2022/04/13 11:05:09;;;;;;;11.68;5.10;;;;;;;;;;5089550;28;20551;-84
2022/04/13 11:07:36;;;;;;;11.32;5.53;;;;;;;;;;5089671;28;20047;-83
2022/04/13 11:10:03;;;;;;;11.38;6.35;;;;;;;;;;5056781;28;20072;-83
2022/04/13 11:12:30;;;;;;;11.13;6.03;;;;;;;;;;5091661;28;20044;-84
2022/04/13 11:14:59;;;;;;;13.98;7.03;;;;;;;;;;5091288;28;20051;-84
2022/04/13 11:17:26;;;;;;;10.25;5.93;;;;;;;;;;5073690;28;20123;-83
2022/04/13 11:20:12;;;;;;;12.13;5.28;;;;;;;;;;5087567;28;20040;-75
2022/04/13 11:22:38;;;;;;;8.68;3.13;;;;;;;;;;5090244;28;20059;-75
2022/04/13 11:25:04;;;;;;;7.82;3.10;;;;;;;;;;5069809;28;20076;-77
2022/04/13 11:27:50;;;;;;;9.85;4.00;;;;;;;;;;5089091;28;20185;-78
2022/04/13 11:30:16;;;;;;;11.25;3.60;;;;;;;;;;5087078;28;20044;-79
2022/04/13 11:32:43;;;;;;;7.75;3.42;;;;;;;;;;5088378;28;20184;-78
2022/04/13 11:35:13;;;;;;;10.48;4.53;;;;;;;;;;5082372;28;20040;-81
2022/04/13 11:37:39;;;;;;;10.57;4.40;;;;;;;;;;5070116;28;20141;-81
2022/04/13 11:40:06;;;;;;;10.55;4.20;;;;;;;;;;5086032;28;20402;-81
2022/04/13 11:42:36;;;;;;;8.75;3.70;;;;;;;;;;5070788;28;20056;-80
2022/04/13 11:45:02;;;;;;;12.38;4.05;;;;;;;;;;5069240;28;20523;-79
2022/04/13 11:47:39;;;;;;;10.63;4.85;;;;;;;;;;5068208;28;20040;-81
2022/04/13 11:50:25;;;;;;;8.07;4.07;;;;;;;;;;5102687;28;20036;-78
2022/04/13 11:53:03;;;;;;;12.10;5.13;;;;;;;;;;5103589;28;20463;-80
2022/04/13 11:55:35;;;;;;;11.63;4.38;;;;;;;;;;5103136;28;20036;-77
2022/04/13 11:58:09;;;;;;;9.73;4.63;;;;;;;;;;5122349;27;20654;-76
2022/04/13 12:00:37;;;;;;;9.50;4.43;;;;;;;;;;5086298;28;20127;-80
2022/04/13 12:03:06;;;;;;;14.00;4.90;;;;;;;;;;5074542;28;20047;-81
2022/04/13 12:05:32;;;;;;;11.10;4.32;;;;;;;;;;5071208;28;20047;-79
2022/04/13 12:07:59;;;;;;;12.80;4.45;;;;;;;;;;5086195;28;20052;-79
2022/04/13 12:10:25;;;;;;;9.82;4.10;;;;;;;;;;5088152;28;20094;-78
2022/04/13 12:12:55;;;;;;;11.02;4.68;;;;;;;;;;5072189;28;20122;-80
2022/04/13 12:15:23;;;;;;;13.18;4.72;;;;;;;;;;5069078;28;20383;-80
2022/04/13 12:17:49;;;;;;;11.95;4.20;;;;;;;;;;5119879;27;20043;-81
2022/04/13 12:20:28;;;;;;;10.20;4.18;;;;;;;;;;5054340;28;20047;-77
2022/04/13 12:22:55;;;;;;;10.68;4.72;;;;;;;;;;5065387;28;20471;-78
2022/04/13 12:25:21;;;;;;;12.35;4.78;;;;;;;;;;5069356;28;20475;-79
2022/04/13 12:28:13;;;;;;;11.32;4.22;;;;;;;;;;5084100;28;20510;-80
2022/04/13 12:30:40;;;;;;;13.00;4.90;;;;;;;;;;5108918;27;20058;-82
2022/04/13 12:33:13;;;;;;;10.35;4.63;;;;;;;;;;5114395;27;20108;-81
2022/04/13 12:35:46;;;;;;;14.48;4.50;;;;;;;;;;5097904;27;20036;-81
2022/04/13 12:38:20;;;;;;;10.88;4.53;;;;;;;;;;5067394;28;20044;-82
2022/04/13 12:40:46;;;;;;;13.50;4.50;;;;;;;;;;5070768;28;20506;-81
2022/04/13 12:43:25;;;;;;;8.98;4.20;;;;;;;;;;5115760;27;20105;-81
2022/04/13 12:45:51;;;;;;;11.13;4.15;;;;;;;;;;5069729;28;20575;-81
2022/04/13 12:48:17;;;;;;;10.23;4.55;;;;;;;;;;5069748;28;20047;-79
2022/04/13 12:50:56;;;;;;;14.15;5.13;;;;;;;;;;5070286;28;20040;-83
2022/04/13 12:53:22;;;;;;;13.30;4.07;;;;;;;;;;5068294;28;20126;-82
2022/04/13 12:55:55;;;;;;;13.93;4.90;;;;;;;;;;5069321;28;20040;-82
2022/04/13 12:58:21;;;;;;;13.10;4.63;;;;;;;;;;5060525;28;20081;-84
2022/04/13 13:00:48;;;;;;;11.18;4.55;;;;;;;;;;5082335;28;20044;-83
2022/04/13 13:03:14;;;;;;;10.18;4.20;;;;;;;;;;5084809;28;20052;-83
2022/04/13 13:05:41;;;;;;;13.68;5.25;;;;;;;;;;5085349;28;20047;-82
2022/04/13 13:08:07;;;;;;;13.38;4.10;;;;;;;;;;5105294;28;20052;-84
2022/04/13 13:10:33;;;;;;;14.45;4.13;;;;;;;;;;5088007;28;20040;-82
2022/04/13 13:13:19;;;;;;;8.48;3.90;;;;;;;;;;5121357;27;20047;-83
2022/04/13 13:15:46;;;;;;;12.68;3.97;;;;;;;;;;5070875;28;20089;-82
2022/04/13 13:18:12;;;;;;;9.80;3.85;;;;;;;;;;5068188;28;20094;-80
2022/04/13 13:20:54;;;;;;;18.90;5.57;;;;;;;;;;5113625;27;20058;-81
2022/04/13 13:23:30;;;;;;;12.63;5.63;;;;;;;;;;5084270;28;20051;-80
2022/04/13 13:26:00;;;;;;;17.02;6.07;;;;;;;;;;5084757;28;20364;-79
2022/04/13 13:28:29;;;;;;;12.20;5.95;;;;;;;;;;5081355;28;20039;-77
2022/04/13 13:30:56;;;;;;;17.15;6.43;;;;;;;;;;5084668;28;20039;-79
2022/04/13 13:33:23;;;;;;;16.50;6.80;;;;;;;;;;5121312;27;20036;-76
2022/04/13 13:35:49;;;;;;;21.02;8.05;;;;;;;;;;5071567;28;20160;-84
2022/04/13 13:38:20;;;;;;;16.05;7.55;;;;;;;;;;5071134;28;20051;-83
2022/04/13 13:40:47;;;;;;;17.27;7.55;;;;;;;;;;5069550;28;20035;-81
2022/04/13 13:43:18;;;;;;;16.30;7.00;;;;;;;;;;5113582;27;20051;-91
2022/04/13 13:45:45;;;;;;;13.20;6.20;;;;;;;;;;5088530;28;20522;-86
2022/04/13 13:48:12;;;;;;;13.32;5.80;;;;;;;;;;5069398;28;20044;-82
2022/04/13 13:50:44;;;;;;;11.25;5.38;;;;;;;;;;5071362;28;20487;-86
2022/04/13 13:53:11;;;;;;;14.32;5.75;;;;;;;;;;5071798;28;20048;-87
2022/04/13 13:55:38;;;;;;;14.32;7.18;;;;;;;;;;5113865;28;20127;-87
2022/04/13 13:58:04;;;;;;;19.73;7.05;;;;;;;;;;5072697;28;20048;-87
2022/04/13 14:00:37;;;;;;;14.57;6.32;;;;;;;;;;5087149;28;20044;-81
2022/04/13 14:03:04;;;;;;;14.60;6.90;;;;;;;;;;5093029;28;20051;-92
2022/04/13 14:05:30;;;;;;;15.57;7.35;;;;;;;;;;5102981;28;20434;-80
2022/04/13 14:07:57;;;;;;;14.52;7.15;;;;;;;;;;5070456;28;20048;-81
2022/04/13 14:10:24;;;;;;;16.42;7.28;;;;;;;;;;5090140;28;20375;-86
2022/04/13 14:12:50;;;;;;;17.20;7.32;;;;;;;;;;5074830;28;20052;-82
2022/04/13 14:15:16;;;;;;;13.98;7.30;;;;;;;;;;5074231;28;20435;-82
2022/04/13 14:17:44;;;;;;;17.23;7.65;;;;;;;;;;5072817;28;20039;-84
2022/04/13 14:20:11;;;;;;;10.75;6.88;;;;;;;;;;5074395;28;20051;-81
2022/04/13 14:22:38;;;;;;;14.63;6.57;;;;;;;;;;5091623;28;20132;-83
2022/04/13 14:25:05;;;;;;;19.45;7.88;;;;;;;;;;5072538;28;20095;-87
2022/04/13 14:27:31;;;;;;;20.60;6.63;;;;;;;;;;5089904;28;20071;-84
2022/04/13 14:29:58;;;;;;;11.93;6.40;;;;;;;;;;5109414;28;20056;-84
2022/04/13 14:32:28;;;;;;;15.95;6.82;;;;;;;;;;5105512;27;20101;-84
2022/04/13 14:34:54;;;;;;;11.38;4.43;;;;;;;;;;5074827;28;20048;-89
2022/04/13 14:37:21;;;;;;;11.95;4.55;;;;;;;;;;5058095;28;20437;-82
2022/04/13 14:39:48;;;;;;;12.40;4.78;;;;;;;;;;5056589;28;20490;-86